sensor_id;sensor_type;location;lat;lon;timestamp;P1;durP1;ratioP1;P2;durP2;ratioP2
39218;SDS011;24934;52.752;6.964;2022-09-11T00:01:09;16.05;;;14.65;;
39218;SDS011;24934;52.752;6.964;2022-09-11T00:03:37;14.30;;;13.15;;
39218;SDS011;24934;52.752;6.964;2022-09-11T00:06:08;13.70;;;12.48;;
39218;SDS011;24934;52.752;6.964;2022-09-11T00:08:35;14.13;;;12.88;;
39218;SDS011;24934;52.752;6.964;2022-09-11T00:11:06;14.85;;;13.45;;
39218;SDS011;24934;52.752;6.964;2022-09-11T00:13:43;13.93;;;12.82;;
39218;SDS011;24934;52.752;6.964;2022-09-11T00:16:17;17.77;;;15.75;;
39218;SDS011;24934;52.752;6.964;2022-09-11T00:18:51;17.23;;;15.32;;
39218;SDS011;24934;52.752;6.964;2022-09-11T00:21:18;13.68;;;12.48;;
39218;SDS011;24934;52.752;6.964;2022-09-11T00:23:44;15.32;;;13.88;;
39218;SDS011;24934;52.752;6.964;2022-09-11T00:26:13;13.93;;;12.82;;
39218;SDS011;24934;52.752;6.964;2022-09-11T00:28:38;14.70;;;13.48;;
39218;SDS011;24934;52.752;6.964;2022-09-11T00:31:09;16.67;;;15.05;;
39218;SDS011;24934;52.752;6.964;2022-09-11T00:33:37;13.82;;;12.63;;
39218;SDS011;24934;52.752;6.964;2022-09-11T00:36:04;16.40;;;15.13;;
39218;SDS011;24934;52.752;6.964;2022-09-11T00:38:33;16.70;;;15.40;;
39218;SDS011;24934;52.752;6.964;2022-09-11T00:41:01;14.25;;;13.00;;
39218;SDS011;24934;52.752;6.964;2022-09-11T00:43:28;14.70;;;13.43;;
39218;SDS011;24934;52.752;6.964;2022-09-11T00:46:00;15.57;;;14.25;;
39218;SDS011;24934;52.752;6.964;2022-09-11T00:48:33;13.90;;;12.55;;
39218;SDS011;24934;52.752;6.964;2022-09-11T00:51:00;15.95;;;14.63;;
39218;SDS011;24934;52.752;6.964;2022-09-11T00:53:28;15.02;;;13.88;;
39218;SDS011;24934;52.752;6.964;2022-09-11T00:55:59;16.63;;;15.23;;
39218;SDS011;24934;52.752;6.964;2022-09-11T00:58:30;15.35;;;13.98;;
39218;SDS011;24934;52.752;6.964;2022-09-11T01:01:00;13.90;;;12.68;;
39218;SDS011;24934;52.752;6.964;2022-09-11T01:03:27;14.52;;;13.35;;
39218;SDS011;24934;52.752;6.964;2022-09-11T01:05:53;13.95;;;12.75;;
39218;SDS011;24934;52.752;6.964;2022-09-11T01:08:19;13.75;;;12.65;;
39218;SDS011;24934;52.752;6.964;2022-09-11T01:16:11;14.20;;;13.13;;
39218;SDS011;24934;52.752;6.964;2022-09-11T01:30:04;15.23;;;14.13;;
39218;SDS011;24934;52.752;6.964;2022-09-11T01:32:55;16.58;;;14.98;;
39218;SDS011;24934;52.752;6.964;2022-09-11T01:35:35;16.48;;;14.73;;
39218;SDS011;24934;52.752;6.964;2022-09-11T01:38:13;14.13;;;12.98;;
39218;SDS011;24934;52.752;6.964;2022-09-11T01:40:48;15.05;;;13.85;;
39218;SDS011;24934;52.752;6.964;2022-09-11T01:43:23;15.27;;;13.93;;
39218;SDS011;24934;52.752;6.964;2022-09-11T01:45:51;13.20;;;12.00;;
39218;SDS011;24934;52.752;6.964;2022-09-11T01:48:19;14.95;;;13.75;;
39218;SDS011;24934;52.752;6.964;2022-09-11T01:50:49;15.25;;;14.00;;
39218;SDS011;24934;52.752;6.964;2022-09-11T01:53:18;13.63;;;12.63;;
39218;SDS011;24934;52.752;6.964;2022-09-11T01:55:48;13.10;;;12.02;;
39218;SDS011;24934;52.752;6.964;2022-09-11T01:58:26;12.50;;;11.60;;
39218;SDS011;24934;52.752;6.964;2022-09-11T02:00:55;14.73;;;13.60;;
39218;SDS011;24934;52.752;6.964;2022-09-11T02:03:35;17.23;;;15.85;;
39218;SDS011;24934;52.752;6.964;2022-09-11T02:06:20;15.50;;;14.10;;
39218;SDS011;24934;52.752;6.964;2022-09-11T02:08:55;15.48;;;14.18;;
39218;SDS011;24934;52.752;6.964;2022-09-11T02:11:25;14.95;;;13.75;;
39218;SDS011;24934;52.752;6.964;2022-09-11T02:14:12;13.48;;;12.27;;
39218;SDS011;24934;52.752;6.964;2022-09-11T02:16:52;15.80;;;14.57;;
39218;SDS011;24934;52.752;6.964;2022-09-11T02:19:41;15.32;;;14.25;;
39218;SDS011;24934;52.752;6.964;2022-09-11T02:22:07;16.42;;;14.82;;
39218;SDS011;24934;52.752;6.964;2022-09-11T02:24:33;17.63;;;16.33;;
39218;SDS011;24934;52.752;6.964;2022-09-11T02:27:00;15.63;;;14.32;;
39218;SDS011;24934;52.752;6.964;2022-09-11T02:29:47;16.50;;;15.10;;
39218;SDS011;24934;52.752;6.964;2022-09-11T02:32:12;15.48;;;14.27;;
39218;SDS011;24934;52.752;6.964;2022-09-11T02:34:38;16.70;;;15.48;;
39218;SDS011;24934;52.752;6.964;2022-09-11T02:40:03;18.23;;;16.73;;
39218;SDS011;24934;52.752;6.964;2022-09-11T02:48:27;17.23;;;15.65;;
39218;SDS011;24934;52.752;6.964;2022-09-11T02:51:08;17.52;;;16.23;;
39218;SDS011;24934;52.752;6.964;2022-09-11T02:56:40;16.02;;;14.82;;
39218;SDS011;24934;52.752;6.964;2022-09-11T02:59:22;15.52;;;14.38;;
39218;SDS011;24934;52.752;6.964;2022-09-11T03:01:53;16.98;;;15.52;;
39218;SDS011;24934;52.752;6.964;2022-09-11T03:04:22;15.85;;;14.40;;
39218;SDS011;24934;52.752;6.964;2022-09-11T03:06:49;16.65;;;15.35;;
39218;SDS011;24934;52.752;6.964;2022-09-11T03:09:16;18.00;;;16.30;;
39218;SDS011;24934;52.752;6.964;2022-09-11T03:11:42;15.18;;;14.07;;
39218;SDS011;24934;52.752;6.964;2022-09-11T03:14:09;17.33;;;15.80;;
39218;SDS011;24934;52.752;6.964;2022-09-11T03:16:35;17.77;;;16.15;;
39218;SDS011;24934;52.752;6.964;2022-09-11T03:19:01;15.85;;;14.27;;
39218;SDS011;24934;52.752;6.964;2022-09-11T03:21:29;19.23;;;17.60;;
39218;SDS011;24934;52.752;6.964;2022-09-11T03:23:55;14.90;;;13.77;;
39218;SDS011;24934;52.752;6.964;2022-09-11T03:26:21;15.30;;;14.10;;
39218;SDS011;24934;52.752;6.964;2022-09-11T03:28:47;19.77;;;18.17;;
39218;SDS011;24934;52.752;6.964;2022-09-11T03:31:14;17.30;;;15.90;;
39218;SDS011;24934;52.752;6.964;2022-09-11T03:33:40;15.18;;;14.07;;
39218;SDS011;24934;52.752;6.964;2022-09-11T03:36:06;15.95;;;14.57;;
39218;SDS011;24934;52.752;6.964;2022-09-11T03:38:32;15.27;;;14.15;;
39218;SDS011;24934;52.752;6.964;2022-09-11T03:40:58;15.07;;;13.90;;
39218;SDS011;24934;52.752;6.964;2022-09-11T03:43:23;16.45;;;15.02;;
39218;SDS011;24934;52.752;6.964;2022-09-11T03:45:49;15.23;;;14.07;;
39218;SDS011;24934;52.752;6.964;2022-09-11T03:48:16;15.15;;;14.02;;
39218;SDS011;24934;52.752;6.964;2022-09-11T03:50:43;15.80;;;14.63;;
39218;SDS011;24934;52.752;6.964;2022-09-11T03:53:09;14.82;;;13.70;;
39218;SDS011;24934;52.752;6.964;2022-09-11T03:55:36;17.27;;;15.88;;
39218;SDS011;24934;52.752;6.964;2022-09-11T03:58:02;12.55;;;11.68;;
39218;SDS011;24934;52.752;6.964;2022-09-11T04:00:28;14.27;;;13.07;;
39218;SDS011;24934;52.752;6.964;2022-09-11T04:02:53;13.32;;;12.27;;
39218;SDS011;24934;52.752;6.964;2022-09-11T04:05:20;13.77;;;12.82;;
39218;SDS011;24934;52.752;6.964;2022-09-11T04:07:48;13.98;;;12.85;;
39218;SDS011;24934;52.752;6.964;2022-09-11T04:10:16;15.25;;;13.95;;
39218;SDS011;24934;52.752;6.964;2022-09-11T04:12:42;14.60;;;13.50;;
39218;SDS011;24934;52.752;6.964;2022-09-11T04:15:08;14.85;;;13.65;;
39218;SDS011;24934;52.752;6.964;2022-09-11T04:17:34;16.23;;;15.05;;
39218;SDS011;24934;52.752;6.964;2022-09-11T04:20:00;14.65;;;13.35;;
39218;SDS011;24934;52.752;6.964;2022-09-11T04:22:27;14.00;;;12.85;;
39218;SDS011;24934;52.752;6.964;2022-09-11T04:24:52;15.15;;;13.60;;
39218;SDS011;24934;52.752;6.964;2022-09-11T04:27:18;13.02;;;12.02;;
39218;SDS011;24934;52.752;6.964;2022-09-11T04:29:44;16.23;;;14.93;;
39218;SDS011;24934;52.752;6.964;2022-09-11T04:32:10;13.98;;;12.80;;
39218;SDS011;24934;52.752;6.964;2022-09-11T04:34:36;15.73;;;14.38;;
39218;SDS011;24934;52.752;6.964;2022-09-11T04:37:02;15.45;;;14.25;;
39218;SDS011;24934;52.752;6.964;2022-09-11T04:39:28;15.85;;;14.55;;
39218;SDS011;24934;52.752;6.964;2022-09-11T04:41:54;15.32;;;14.20;;
39218;SDS011;24934;52.752;6.964;2022-09-11T04:44:21;13.85;;;12.85;;
39218;SDS011;24934;52.752;6.964;2022-09-11T04:46:48;14.05;;;12.90;;
39218;SDS011;24934;52.752;6.964;2022-09-11T04:49:13;13.60;;;12.60;;
39218;SDS011;24934;52.752;6.964;2022-09-11T04:51:39;12.68;;;11.70;;
39218;SDS011;24934;52.752;6.964;2022-09-11T04:54:05;12.27;;;11.45;;
39218;SDS011;24934;52.752;6.964;2022-09-11T04:56:33;13.60;;;12.40;;
39218;SDS011;24934;52.752;6.964;2022-09-11T04:59:20;13.07;;;12.02;;
39218;SDS011;24934;52.752;6.964;2022-09-11T05:01:50;14.43;;;13.30;;
39218;SDS011;24934;52.752;6.964;2022-09-11T05:04:16;13.68;;;12.68;;
39218;SDS011;24934;52.752;6.964;2022-09-11T05:06:42;15.15;;;14.05;;
39218;SDS011;24934;52.752;6.964;2022-09-11T05:09:12;14.68;;;13.68;;
39218;SDS011;24934;52.752;6.964;2022-09-11T05:11:38;13.75;;;12.75;;
39218;SDS011;24934;52.752;6.964;2022-09-11T05:14:04;13.57;;;12.47;;
39218;SDS011;24934;52.752;6.964;2022-09-11T05:16:30;12.27;;;11.38;;
39218;SDS011;24934;52.752;6.964;2022-09-11T05:18:58;11.82;;;11.00;;
39218;SDS011;24934;52.752;6.964;2022-09-11T05:21:24;12.60;;;11.60;;
39218;SDS011;24934;52.752;6.964;2022-09-11T05:23:52;14.57;;;11.65;;
39218;SDS011;24934;52.752;6.964;2022-09-11T05:26:20;12.90;;;11.93;;
39218;SDS011;24934;52.752;6.964;2022-09-11T05:28:47;12.27;;;11.38;;
39218;SDS011;24934;52.752;6.964;2022-09-11T05:31:21;13.38;;;12.27;;
39218;SDS011;24934;52.752;6.964;2022-09-11T05:33:47;12.25;;;11.25;;
39218;SDS011;24934;52.752;6.964;2022-09-11T05:36:13;12.70;;;11.80;;
39218;SDS011;24934;52.752;6.964;2022-09-11T05:38:40;13.02;;;12.05;;
39218;SDS011;24934;52.752;6.964;2022-09-11T05:41:07;13.13;;;12.10;;
39218;SDS011;24934;52.752;6.964;2022-09-11T05:43:35;13.25;;;12.23;;
39218;SDS011;24934;52.752;6.964;2022-09-11T05:46:03;12.90;;;11.70;;
39218;SDS011;24934;52.752;6.964;2022-09-11T05:48:33;13.13;;;12.02;;
39218;SDS011;24934;52.752;6.964;2022-09-11T05:51:01;12.48;;;11.57;;
39218;SDS011;24934;52.752;6.964;2022-09-11T05:53:31;12.55;;;11.60;;
39218;SDS011;24934;52.752;6.964;2022-09-11T05:55:57;13.45;;;12.45;;
39218;SDS011;24934;52.752;6.964;2022-09-11T05:58:29;13.27;;;12.23;;
39218;SDS011;24934;52.752;6.964;2022-09-11T06:01:05;12.23;;;11.23;;
39218;SDS011;24934;52.752;6.964;2022-09-11T06:03:33;12.38;;;11.38;;
39218;SDS011;24934;52.752;6.964;2022-09-11T06:06:00;11.35;;;10.48;;
39218;SDS011;24934;52.752;6.964;2022-09-11T06:08:28;21.20;;;11.07;;
39218;SDS011;24934;52.752;6.964;2022-09-11T06:10:55;11.93;;;11.00;;
39218;SDS011;24934;52.752;6.964;2022-09-11T06:13:23;12.10;;;11.20;;
39218;SDS011;24934;52.752;6.964;2022-09-11T06:15:55;11.77;;;10.88;;
39218;SDS011;24934;52.752;6.964;2022-09-11T06:18:21;11.50;;;10.70;;
39218;SDS011;24934;52.752;6.964;2022-09-11T06:20:56;11.05;;;10.25;;
39218;SDS011;24934;52.752;6.964;2022-09-11T06:23:23;11.43;;;10.63;;
39218;SDS011;24934;52.752;6.964;2022-09-11T06:25:49;10.55;;;9.75;;
39218;SDS011;24934;52.752;6.964;2022-09-11T06:28:14;12.43;;;11.30;;
39218;SDS011;24934;52.752;6.964;2022-09-11T06:30:40;11.88;;;10.98;;
39218;SDS011;24934;52.752;6.964;2022-09-11T06:33:05;12.32;;;11.43;;
39218;SDS011;24934;52.752;6.964;2022-09-11T06:35:31;11.85;;;10.95;;
39218;SDS011;24934;52.752;6.964;2022-09-11T06:37:57;11.23;;;10.27;;
39218;SDS011;24934;52.752;6.964;2022-09-11T06:40:23;11.57;;;10.68;;
39218;SDS011;24934;52.752;6.964;2022-09-11T06:42:49;11.57;;;10.68;;
39218;SDS011;24934;52.752;6.964;2022-09-11T06:45:15;11.05;;;10.23;;
39218;SDS011;24934;52.752;6.964;2022-09-11T06:47:41;11.90;;;10.90;;
39218;SDS011;24934;52.752;6.964;2022-09-11T06:50:08;12.68;;;11.73;;
39218;SDS011;24934;52.752;6.964;2022-09-11T06:52:35;11.90;;;11.00;;
39218;SDS011;24934;52.752;6.964;2022-09-11T06:55:01;12.38;;;11.48;;
39218;SDS011;24934;52.752;6.964;2022-09-11T06:57:27;12.52;;;11.52;;
39218;SDS011;24934;52.752;6.964;2022-09-11T06:59:53;12.73;;;11.52;;
39218;SDS011;24934;52.752;6.964;2022-09-11T07:02:18;13.05;;;11.95;;
39218;SDS011;24934;52.752;6.964;2022-09-11T07:04:44;11.43;;;10.52;;
39218;SDS011;24934;52.752;6.964;2022-09-11T07:07:11;11.45;;;10.60;;
39218;SDS011;24934;52.752;6.964;2022-09-11T07:09:36;12.75;;;11.75;;
39218;SDS011;24934;52.752;6.964;2022-09-11T07:12:02;11.55;;;10.65;;
39218;SDS011;24934;52.752;6.964;2022-09-11T07:14:28;12.00;;;11.10;;
39218;SDS011;24934;52.752;6.964;2022-09-11T07:16:53;11.52;;;10.73;;
39218;SDS011;24934;52.752;6.964;2022-09-11T07:19:20;12.20;;;11.30;;
39218;SDS011;24934;52.752;6.964;2022-09-11T07:21:49;11.90;;;11.00;;
39218;SDS011;24934;52.752;6.964;2022-09-11T07:24:15;11.73;;;10.73;;
39218;SDS011;24934;52.752;6.964;2022-09-11T07:26:41;12.77;;;11.65;;
39218;SDS011;24934;52.752;6.964;2022-09-11T07:29:06;11.57;;;10.73;;
39218;SDS011;24934;52.752;6.964;2022-09-11T07:31:32;10.85;;;10.15;;
39218;SDS011;24934;52.752;6.964;2022-09-11T07:34:02;11.85;;;10.95;;
39218;SDS011;24934;52.752;6.964;2022-09-11T07:36:29;11.57;;;10.68;;
39218;SDS011;24934;52.752;6.964;2022-09-11T07:38:56;10.93;;;10.02;;
39218;SDS011;24934;52.752;6.964;2022-09-11T07:41:22;11.57;;;10.68;;
39218;SDS011;24934;52.752;6.964;2022-09-11T07:43:55;10.65;;;9.93;;
39218;SDS011;24934;52.752;6.964;2022-09-11T07:46:23;12.88;;;11.68;;
39218;SDS011;24934;52.752;6.964;2022-09-11T07:48:50;11.75;;;10.95;;
39218;SDS011;24934;52.752;6.964;2022-09-11T07:51:16;12.95;;;12.00;;
39218;SDS011;24934;52.752;6.964;2022-09-11T07:53:44;11.30;;;10.50;;
39218;SDS011;24934;52.752;6.964;2022-09-11T07:56:14;11.88;;;10.98;;
39218;SDS011;24934;52.752;6.964;2022-09-11T07:58:41;12.40;;;11.45;;
39218;SDS011;24934;52.752;6.964;2022-09-11T08:01:09;11.48;;;10.48;;
39218;SDS011;24934;52.752;6.964;2022-09-11T08:03:39;10.50;;;9.80;;
39218;SDS011;24934;52.752;6.964;2022-09-11T08:06:07;10.70;;;10.00;;
39218;SDS011;24934;52.752;6.964;2022-09-11T08:08:35;11.10;;;10.35;;
39218;SDS011;24934;52.752;6.964;2022-09-11T08:11:06;11.40;;;10.60;;
39218;SDS011;24934;52.752;6.964;2022-09-11T08:13:34;10.95;;;10.23;;
39218;SDS011;24934;52.752;6.964;2022-09-11T08:16:00;11.15;;;10.35;;
39218;SDS011;24934;52.752;6.964;2022-09-11T08:18:26;10.27;;;9.57;;
39218;SDS011;24934;52.752;6.964;2022-09-11T08:20:53;11.10;;;10.38;;
39218;SDS011;24934;52.752;6.964;2022-09-11T08:23:38;11.10;;;10.30;;
39218;SDS011;24934;52.752;6.964;2022-09-11T08:26:05;10.93;;;10.07;;
39218;SDS011;24934;52.752;6.964;2022-09-11T08:28:40;10.23;;;9.48;;
39218;SDS011;24934;52.752;6.964;2022-09-11T08:31:07;9.70;;;9.00;;
39218;SDS011;24934;52.752;6.964;2022-09-11T08:33:33;11.15;;;10.35;;
39218;SDS011;24934;52.752;6.964;2022-09-11T08:36:00;10.60;;;9.90;;
39218;SDS011;24934;52.752;6.964;2022-09-11T08:38:28;10.40;;;9.60;;
39218;SDS011;24934;52.752;6.964;2022-09-11T08:44:15;9.50;;;8.80;;
39218;SDS011;24934;52.752;6.964;2022-09-11T08:46:47;8.75;;;8.25;;
39218;SDS011;24934;52.752;6.964;2022-09-11T08:49:22;9.23;;;8.63;;
39218;SDS011;24934;52.752;6.964;2022-09-11T08:51:48;10.45;;;9.65;;
39218;SDS011;24934;52.752;6.964;2022-09-11T08:54:56;10.05;;;9.35;;
39218;SDS011;24934;52.752;6.964;2022-09-11T09:11:21;10.20;;;9.45;;
39218;SDS011;24934;52.752;6.964;2022-09-11T09:16:41;9.65;;;8.95;;
39218;SDS011;24934;52.752;6.964;2022-09-11T09:19:15;10.90;;;10.00;;
39218;SDS011;24934;52.752;6.964;2022-09-11T09:21:59;9.70;;;8.80;;
39218;SDS011;24934;52.752;6.964;2022-09-11T09:24:56;10.27;;;9.57;;
39218;SDS011;24934;52.752;6.964;2022-09-11T09:27:32;10.93;;;10.23;;
39218;SDS011;24934;52.752;6.964;2022-09-11T09:30:34;10.00;;;9.40;;
39218;SDS011;24934;52.752;6.964;2022-09-11T09:35:39;10.77;;;9.98;;
39218;SDS011;24934;52.752;6.964;2022-09-11T09:38:14;9.68;;;8.98;;
39218;SDS011;24934;52.752;6.964;2022-09-11T09:41:30;10.70;;;10.00;;
39218;SDS011;24934;52.752;6.964;2022-09-11T09:46:21;10.73;;;10.02;;
39218;SDS011;24934;52.752;6.964;2022-09-11T09:49:00;9.65;;;9.05;;
39218;SDS011;24934;52.752;6.964;2022-09-11T09:51:25;10.82;;;10.13;;
39218;SDS011;24934;52.752;6.964;2022-09-11T09:53:53;10.57;;;9.77;;
39218;SDS011;24934;52.752;6.964;2022-09-11T09:56:25;10.45;;;9.57;;
39218;SDS011;24934;52.752;6.964;2022-09-11T09:59:02;10.98;;;10.25;;
39218;SDS011;24934;52.752;6.964;2022-09-11T10:01:45;11.20;;;10.40;;
39218;SDS011;24934;52.752;6.964;2022-09-11T10:04:18;10.13;;;9.52;;
39218;SDS011;24934;52.752;6.964;2022-09-11T10:06:48;8.90;;;8.40;;
39218;SDS011;24934;52.752;6.964;2022-09-11T10:09:20;9.45;;;8.77;;
39218;SDS011;24934;52.752;6.964;2022-09-11T10:11:52;8.95;;;8.15;;
39218;SDS011;24934;52.752;6.964;2022-09-11T10:14:20;8.15;;;7.65;;
39218;SDS011;24934;52.752;6.964;2022-09-11T10:16:47;8.60;;;8.10;;
39218;SDS011;24934;52.752;6.964;2022-09-11T10:22:13;8.07;;;7.57;;
39218;SDS011;24934;52.752;6.964;2022-09-11T10:24:57;8.77;;;8.18;;
39218;SDS011;24934;52.752;6.964;2022-09-11T10:27:24;8.27;;;7.68;;
39218;SDS011;24934;52.752;6.964;2022-09-11T10:29:51;7.80;;;7.30;;
39218;SDS011;24934;52.752;6.964;2022-09-11T10:32:18;7.40;;;7.00;;
39218;SDS011;24934;52.752;6.964;2022-09-11T10:34:46;7.30;;;6.90;;
39218;SDS011;24934;52.752;6.964;2022-09-11T10:39:38;7.90;;;7.40;;
39218;SDS011;24934;52.752;6.964;2022-09-11T10:42:25;6.97;;;6.53;;
39218;SDS011;24934;52.752;6.964;2022-09-11T10:44:52;7.15;;;6.75;;
39218;SDS011;24934;52.752;6.964;2022-09-11T10:47:28;8.13;;;7.63;;
39218;SDS011;24934;52.752;6.964;2022-09-11T10:50:11;9.00;;;8.20;;
39218;SDS011;24934;52.752;6.964;2022-09-11T10:55:22;8.30;;;7.75;;
39218;SDS011;24934;52.752;6.964;2022-09-11T10:57:51;8.02;;;7.53;;
39218;SDS011;24934;52.752;6.964;2022-09-11T11:02:48;7.20;;;6.80;;
39218;SDS011;24934;52.752;6.964;2022-09-11T11:05:31;6.53;;;6.13;;
39218;SDS011;24934;52.752;6.964;2022-09-11T11:08:12;6.75;;;6.35;;
39218;SDS011;24934;52.752;6.964;2022-09-11T11:25:23;6.50;;;6.10;;
39218;SDS011;24934;52.752;6.964;2022-09-11T11:33:43;6.13;;;5.78;;
39218;SDS011;24934;52.752;6.964;2022-09-11T11:36:29;6.70;;;6.30;;
39218;SDS011;24934;52.752;6.964;2022-09-11T11:39:14;6.50;;;6.10;;
39218;SDS011;24934;52.752;6.964;2022-09-11T11:42:08;5.97;;;5.57;;
39218;SDS011;24934;52.752;6.964;2022-09-11T11:44:45;5.80;;;5.50;;
39218;SDS011;24934;52.752;6.964;2022-09-11T11:47:17;6.78;;;6.18;;
39218;SDS011;24934;52.752;6.964;2022-09-11T11:52:30;5.93;;;5.53;;
39218;SDS011;24934;52.752;6.964;2022-09-11T11:57:24;5.88;;;5.57;;
39218;SDS011;24934;52.752;6.964;2022-09-11T12:02:29;7.18;;;6.78;;
39218;SDS011;24934;52.752;6.964;2022-09-11T12:05:19;8.02;;;7.50;;
39218;SDS011;24934;52.752;6.964;2022-09-11T12:07:51;7.22;;;6.82;;
39218;SDS011;24934;52.752;6.964;2022-09-11T12:13:01;7.53;;;7.03;;
39218;SDS011;24934;52.752;6.964;2022-09-11T12:15:30;6.88;;;6.47;;
39218;SDS011;24934;52.752;6.964;2022-09-11T12:18:02;7.05;;;6.65;;
39218;SDS011;24934;52.752;6.964;2022-09-11T12:23:05;6.53;;;6.13;;
39218;SDS011;24934;52.752;6.964;2022-09-11T12:26:02;6.40;;;6.00;;
39218;SDS011;24934;52.752;6.964;2022-09-11T12:29:39;6.80;;;6.40;;
39218;SDS011;24934;52.752;6.964;2022-09-11T12:34:22;7.50;;;7.10;;
39218;SDS011;24934;52.752;6.964;2022-09-11T12:36:54;8.32;;;7.82;;
39218;SDS011;24934;52.752;6.964;2022-09-11T12:47:16;6.90;;;6.50;;
39218;SDS011;24934;52.752;6.964;2022-09-11T12:50:29;6.50;;;6.10;;
39218;SDS011;24934;52.752;6.964;2022-09-11T12:52:37;6.03;;;5.53;;
39218;SDS011;24934;52.752;6.964;2022-09-11T12:55:27;5.38;;;5.07;;
39218;SDS011;24934;52.752;6.964;2022-09-11T12:58:05;6.30;;;5.90;;
39218;SDS011;24934;52.752;6.964;2022-09-11T13:00:50;5.63;;;5.22;;
39218;SDS011;24934;52.752;6.964;2022-09-11T13:03:30;5.40;;;5.07;;
39218;SDS011;24934;52.752;6.964;2022-09-11T13:06:01;5.38;;;5.07;;
39218;SDS011;24934;52.752;6.964;2022-09-11T13:08:32;4.85;;;4.65;;
39218;SDS011;24934;52.752;6.964;2022-09-11T13:14:38;5.05;;;4.75;;
39218;SDS011;24934;52.752;6.964;2022-09-11T13:16:58;5.15;;;4.85;;
39218;SDS011;24934;52.752;6.964;2022-09-11T13:19:31;5.93;;;5.63;;
39218;SDS011;24934;52.752;6.964;2022-09-11T13:22:06;6.25;;;5.85;;
39218;SDS011;24934;52.752;6.964;2022-09-11T13:25:02;9.50;;;6.60;;
39218;SDS011;24934;52.752;6.964;2022-09-11T13:27:30;6.43;;;6.10;;
39218;SDS011;24934;52.752;6.964;2022-09-11T13:30:00;7.10;;;6.70;;
39218;SDS011;24934;52.752;6.964;2022-09-11T13:32:26;7.15;;;6.75;;
39218;SDS011;24934;52.752;6.964;2022-09-11T13:34:52;7.60;;;7.10;;
39218;SDS011;24934;52.752;6.964;2022-09-11T13:40:00;7.63;;;7.18;;
39218;SDS011;24934;52.752;6.964;2022-09-11T13:42:28;7.38;;;6.97;;
39218;SDS011;24934;52.752;6.964;2022-09-11T13:44:55;7.38;;;6.97;;
39218;SDS011;24934;52.752;6.964;2022-09-11T13:49:50;7.60;;;7.20;;
39218;SDS011;24934;52.752;6.964;2022-09-11T13:52:22;7.72;;;7.32;;
39218;SDS011;24934;52.752;6.964;2022-09-11T13:54:51;7.57;;;7.18;;
39218;SDS011;24934;52.752;6.964;2022-09-11T13:57:19;8.18;;;7.68;;
39218;SDS011;24934;52.752;6.964;2022-09-11T14:02:58;8.38;;;7.88;;
39218;SDS011;24934;52.752;6.964;2022-09-11T14:05:24;9.07;;;8.48;;
39218;SDS011;24934;52.752;6.964;2022-09-11T14:10:24;9.23;;;8.73;;
39218;SDS011;24934;52.752;6.964;2022-09-11T14:13:11;10.60;;;9.75;;
39218;SDS011;24934;52.752;6.964;2022-09-11T14:15:40;10.18;;;9.57;;
39218;SDS011;24934;52.752;6.964;2022-09-11T14:18:11;11.60;;;10.70;;
39218;SDS011;24934;52.752;6.964;2022-09-11T14:21:23;10.50;;;9.90;;
39218;SDS011;24934;52.752;6.964;2022-09-11T14:23:55;11.20;;;10.50;;
39218;SDS011;24934;52.752;6.964;2022-09-11T14:26:22;11.30;;;10.60;;
39218;SDS011;24934;52.752;6.964;2022-09-11T14:36:34;11.60;;;10.70;;
39218;SDS011;24934;52.752;6.964;2022-09-11T14:39:02;9.80;;;9.20;;
39218;SDS011;24934;52.752;6.964;2022-09-11T14:41:29;10.82;;;9.95;;
39218;SDS011;24934;52.752;6.964;2022-09-11T14:43:55;9.63;;;9.07;;
39218;SDS011;24934;52.752;6.964;2022-09-11T14:46:20;9.70;;;9.10;;
39218;SDS011;24934;52.752;6.964;2022-09-11T14:48:46;8.55;;;8.05;;
39218;SDS011;24934;52.752;6.964;2022-09-11T14:51:12;8.65;;;8.15;;
39218;SDS011;24934;52.752;6.964;2022-09-11T14:53:37;8.35;;;7.75;;
39218;SDS011;24934;52.752;6.964;2022-09-11T14:56:06;9.30;;;8.70;;
39218;SDS011;24934;52.752;6.964;2022-09-11T14:58:33;9.20;;;8.60;;
39218;SDS011;24934;52.752;6.964;2022-09-11T15:00:59;9.73;;;9.00;;
39218;SDS011;24934;52.752;6.964;2022-09-11T15:03:25;8.90;;;8.40;;
39218;SDS011;24934;52.752;6.964;2022-09-11T15:05:52;8.63;;;8.13;;
39218;SDS011;24934;52.752;6.964;2022-09-11T15:08:22;8.52;;;8.02;;
39218;SDS011;24934;52.752;6.964;2022-09-11T15:10:49;9.25;;;8.75;;
39218;SDS011;24934;52.752;6.964;2022-09-11T15:13:16;9.07;;;8.57;;
39218;SDS011;24934;52.752;6.964;2022-09-11T15:15:42;9.25;;;8.75;;
39218;SDS011;24934;52.752;6.964;2022-09-11T15:18:08;8.95;;;8.35;;
39218;SDS011;24934;52.752;6.964;2022-09-11T15:20:34;8.60;;;8.10;;
39218;SDS011;24934;52.752;6.964;2022-09-11T15:22:59;7.80;;;7.40;;
39218;SDS011;24934;52.752;6.964;2022-09-11T15:25:25;8.13;;;7.63;;
39218;SDS011;24934;52.752;6.964;2022-09-11T15:27:51;7.72;;;7.32;;
39218;SDS011;24934;52.752;6.964;2022-09-11T15:30:20;7.00;;;6.60;;
39218;SDS011;24934;52.752;6.964;2022-09-11T15:32:47;7.68;;;7.28;;
39218;SDS011;24934;52.752;6.964;2022-09-11T15:35:13;7.47;;;7.07;;
39218;SDS011;24934;52.752;6.964;2022-09-11T15:37:41;8.20;;;7.70;;
39218;SDS011;24934;52.752;6.964;2022-09-11T15:40:09;6.72;;;6.32;;
39218;SDS011;24934;52.752;6.964;2022-09-11T15:42:35;6.53;;;6.18;;
39218;SDS011;24934;52.752;6.964;2022-09-11T15:45:01;6.55;;;6.15;;
39218;SDS011;24934;52.752;6.964;2022-09-11T15:47:27;5.93;;;5.63;;
39218;SDS011;24934;52.752;6.964;2022-09-11T15:49:56;5.30;;;5.00;;
39218;SDS011;24934;52.752;6.964;2022-09-11T15:52:22;5.40;;;5.10;;
39218;SDS011;24934;52.752;6.964;2022-09-11T15:54:49;5.38;;;5.07;;
39218;SDS011;24934;52.752;6.964;2022-09-11T15:57:14;5.57;;;5.28;;
39218;SDS011;24934;52.752;6.964;2022-09-11T15:59:41;6.00;;;5.70;;
39218;SDS011;24934;52.752;6.964;2022-09-11T16:02:07;6.43;;;6.03;;
39218;SDS011;24934;52.752;6.964;2022-09-11T16:04:34;7.18;;;6.78;;
39218;SDS011;24934;52.752;6.964;2022-09-11T16:07:00;6.35;;;5.97;;
39218;SDS011;24934;52.752;6.964;2022-09-11T16:09:28;6.30;;;6.00;;
39218;SDS011;24934;52.752;6.964;2022-09-11T16:11:55;6.60;;;6.20;;
39218;SDS011;24934;52.752;6.964;2022-09-11T16:14:22;7.10;;;6.70;;
39218;SDS011;24934;52.752;6.964;2022-09-11T16:16:51;7.18;;;6.78;;
39218;SDS011;24934;52.752;6.964;2022-09-11T16:19:18;6.88;;;6.47;;
39218;SDS011;24934;52.752;6.964;2022-09-11T16:21:45;7.63;;;7.13;;
39218;SDS011;24934;52.752;6.964;2022-09-11T16:24:11;8.75;;;8.25;;
39218;SDS011;24934;52.752;6.964;2022-09-11T16:26:39;8.30;;;7.80;;
39218;SDS011;24934;52.752;6.964;2022-09-11T16:29:09;9.05;;;8.25;;
39218;SDS011;24934;52.752;6.964;2022-09-11T16:31:38;7.97;;;7.53;;
39218;SDS011;24934;52.752;6.964;2022-09-11T16:34:05;8.90;;;8.10;;
39218;SDS011;24934;52.752;6.964;2022-09-11T16:36:31;8.32;;;7.82;;
39218;SDS011;24934;52.752;6.964;2022-09-11T16:39:03;8.25;;;7.75;;
39218;SDS011;24934;52.752;6.964;2022-09-11T16:41:30;8.18;;;7.68;;
39218;SDS011;24934;52.752;6.964;2022-09-11T16:43:55;7.68;;;7.28;;
39218;SDS011;24934;52.752;6.964;2022-09-11T16:46:22;8.15;;;7.65;;
39218;SDS011;24934;52.752;6.964;2022-09-11T16:48:49;8.40;;;7.90;;
39218;SDS011;24934;52.752;6.964;2022-09-11T16:51:18;8.18;;;7.68;;
39218;SDS011;24934;52.752;6.964;2022-09-11T16:53:44;8.18;;;7.68;;
39218;SDS011;24934;52.752;6.964;2022-09-11T16:56:11;8.32;;;7.82;;
39218;SDS011;24934;52.752;6.964;2022-09-11T16:58:39;8.48;;;7.97;;